Time;durP1;ratioP1;P1;durP2;ratioP2;P2;SDS_P1;SDS_P2;PMS_P1;PMS_P2;Temp;Humidity;BMP_temperature;BMP_pressure;BME280_temperature;BME280_humidity;BME280_pressure;Samples;Min_cycle;Max_cycle;Signal;HPM_P1;HPM_P2
2021/04/25 00:02:14;;;;;;;5.93;2.43;;;18.10;96.60;;;;;;5057237;28;20610;-77
2021/04/25 00:04:42;;;;;;;9.27;2.53;;;18.40;96.80;;;;;;5054794;28;20184;-75
2021/04/25 00:07:09;;;;;;;6.17;2.50;;;18.40;97.00;;;;;;5055867;28;20715;-73
2021/04/25 00:09:37;;;;;;;6.23;2.33;;;18.60;97.10;;;;;;5055012;28;20267;-74
2021/04/25 00:12:04;;;;;;;6.67;2.43;;;18.60;96.20;;;;;;5059638;28;20705;-79
2021/04/25 00:14:32;;;;;;;3.50;2.10;;;18.70;96.40;;;;;;5056977;28;20666;-74
2021/04/25 00:16:59;;;;;;;6.80;2.43;;;18.80;96.40;;;;;;5061567;28;20315;-76
2021/04/25 00:19:27;;;;;;;6.67;2.60;;;18.90;95.90;;;;;;5054848;28;20192;-78
2021/04/25 00:21:54;;;;;;;7.27;2.60;;;19.00;96.10;;;;;;5069739;28;20206;-78
2021/04/25 00:24:22;;;;;;;5.37;2.13;;;19.00;96.40;;;;;;5068198;28;20217;-79
2021/04/25 00:26:50;;;;;;;11.10;2.90;;;19.10;96.80;;;;;;5073638;28;20595;-78
2021/04/25 00:29:17;;;;;;;6.20;2.40;;;19.30;96.90;;;;;;5074136;28;20186;-77
2021/04/25 00:31:44;;;;;;;8.53;2.97;;;19.30;97.10;;;;;;5059783;28;20318;-76
2021/04/25 00:34:14;;;;;;;6.97;2.50;;;19.50;97.00;;;;;;5053879;28;20200;-80
2021/04/25 00:36:42;;;;;;;8.70;2.33;;;19.70;96.80;;;;;;5071692;28;20198;-77
2021/04/25 00:39:10;;;;;;;7.93;2.37;;;19.70;96.20;;;;;;5061933;28;20686;-80
2021/04/25 00:41:37;;;;;;;4.70;2.00;;;19.70;97.70;;;;;;5074599;28;20276;-83
2021/04/25 00:44:07;;;;;;;8.30;2.70;;;19.60;97.80;;;;;;5074594;28;20175;-79
2021/04/25 00:46:34;;;;;;;5.43;2.07;;;19.60;97.70;;;;;;5060740;28;20274;-78
2021/04/25 00:49:01;;;;;;;5.13;2.10;;;19.90;97.70;;;;;;5053055;28;20184;-79
2021/04/25 00:51:29;;;;;;;9.47;3.23;;;20.20;98.20;;;;;;5048015;28;20536;-77
2021/04/25 00:53:57;;;;;;;11.17;2.17;;;20.10;98.00;;;;;;5049612;28;20188;-76
2021/04/25 00:56:25;;;;;;;6.03;2.30;;;20.20;98.50;;;;;;5054142;28;20440;-77
2021/04/25 00:58:52;;;;;;;5.43;2.30;;;20.30;98.70;;;;;;5056631;28;20192;-79
2021/04/25 01:01:20;;;;;;;10.37;2.83;;;20.30;98.30;;;;;;5056737;28;20602;-77
2021/04/25 01:03:47;;;;;;;7.17;2.47;;;20.40;97.80;;;;;;5057914;28;20223;-79
2021/04/25 01:06:14;;;;;;;6.43;2.07;;;20.60;97.10;;;;;;5050558;28;20192;-82
2021/04/25 01:08:42;;;;;;;6.40;2.27;;;20.70;97.70;;;;;;5059878;28;20180;-78
2021/04/25 01:11:09;;;;;;;5.27;2.00;;;20.80;97.60;;;;;;5053952;28;20215;-74
2021/04/25 01:13:37;;;;;;;3.87;1.90;;;21.00;97.20;;;;;;5061446;28;20196;-75
2021/04/25 01:16:04;;;;;;;3.27;1.80;;;21.20;97.00;;;;;;5054431;28;20192;-76
2021/04/25 01:18:31;;;;;;;6.57;2.47;;;21.30;96.40;;;;;;5053847;28;20186;-72
2021/04/25 01:21:05;;;;;;;7.47;2.13;;;21.40;96.40;;;;;;5057468;28;20187;-74
2021/04/25 01:23:33;;;;;;;7.53;2.00;;;21.70;95.80;;;;;;5059876;28;20221;-75
2021/04/25 01:26:01;;;;;;;5.80;1.87;;;22.10;96.00;;;;;;5055573;28;20208;-73
2021/04/25 01:28:28;;;;;;;6.20;2.33;;;22.30;95.40;;;;;;5058393;28;20242;-74
2021/04/25 01:30:57;;;;;;;10.90;2.40;;;22.10;95.40;;;;;;5056655;28;20720;-73
2021/04/25 01:33:27;;;;;;;7.97;1.93;;;21.80;95.80;;;;;;5053344;28;20707;-75
2021/04/25 01:35:55;;;;;;;6.97;1.70;;;21.50;96.50;;;;;;5054374;28;20188;-76
2021/04/25 01:38:23;;;;;;;4.77;2.00;;;21.60;96.80;;;;;;5053391;28;20172;-77
2021/04/25 01:40:50;;;;;;;6.53;1.80;;;22.10;95.80;;;;;;5065814;28;20183;-74
2021/04/25 01:43:18;;;;;;;6.07;1.90;;;22.40;94.40;;;;;;5072576;28;20247;-77
2021/04/25 01:45:46;;;;;;;5.37;1.77;;;22.20;94.40;;;;;;5062948;28;20181;-77
2021/04/25 01:48:13;;;;;;;5.50;1.63;;;22.00;95.00;;;;;;5055135;28;20196;-77
2021/04/25 01:50:40;;;;;;;8.37;1.80;;;22.20;94.40;;;;;;5052057;28;20171;-73
2021/04/25 01:53:10;;;;;;;5.97;1.90;;;21.70;93.00;;;;;;5054549;28;20187;-74
2021/04/25 01:55:39;;;;;;;3.73;1.57;;;22.00;93.60;;;;;;5055794;28;20179;-74
2021/04/25 01:58:09;;;;;;;5.03;1.50;;;22.10;92.70;;;;;;5056270;28;20207;-77
2021/04/25 02:00:45;;;;;;;3.83;1.53;;;22.00;92.80;;;;;;5054527;28;20191;-74
2021/04/25 02:03:14;;;;;;;10.27;2.20;;;22.10;90.80;;;;;;5051553;28;20223;-75
2021/04/25 02:05:43;;;;;;;4.00;1.80;;;22.10;92.40;;;;;;5048906;28;20222;-75
2021/04/25 02:08:12;;;;;;;7.10;1.80;;;22.20;92.80;;;;;;5051500;28;20199;-71
2021/04/25 02:10:41;;;;;;;4.70;1.83;;;22.40;92.60;;;;;;5049493;28;20188;-75
2021/04/25 02:13:09;;;;;;;3.43;1.77;;;22.30;92.40;;;;;;5051166;28;20256;-78
2021/04/25 02:15:37;;;;;;;3.20;1.57;;;22.50;91.70;;;;;;5052620;28;20270;-75
2021/04/25 02:18:05;;;;;;;2.87;1.30;;;23.10;90.20;;;;;;5051552;28;20241;-75
2021/04/25 02:20:33;;;;;;;6.10;1.73;;;23.30;90.10;;;;;;5051825;28;20309;-79
2021/04/25 02:23:00;;;;;;;8.30;1.77;;;23.80;90.70;;;;;;5052237;28;20246;-74
2021/04/25 02:25:28;;;;;;;5.23;1.77;;;24.20;90.80;;;;;;5050547;28;20186;-75
2021/04/25 02:27:56;;;;;;;4.03;1.70;;;24.00;90.10;;;;;;5052514;28;20200;-77
2021/04/25 02:30:32;;;;;;;4.63;1.47;;;24.60;90.40;;;;;;5050897;28;20228;-80
2021/04/25 02:33:00;;;;;;;3.83;1.77;;;25.20;90.20;;;;;;5056731;28;20192;-75
2021/04/25 02:35:29;;;;;;;6.53;1.70;;;24.30;87.80;;;;;;5050505;28;20207;-69
2021/04/25 02:37:58;;;;;;;4.33;1.70;;;23.30;88.00;;;;;;5051323;28;20267;-70
2021/04/25 02:40:28;;;;;;;2.70;1.50;;;23.10;90.10;;;;;;5051529;28;20195;-74
2021/04/25 02:42:57;;;;;;;6.00;1.67;;;22.80;90.30;;;;;;5049268;28;20242;-71
2021/04/25 02:45:26;;;;;;;8.07;1.50;;;22.30;90.10;;;;;;5054188;28;20704;-71
2021/04/25 02:47:57;;;;;;;5.43;1.50;;;22.20;90.70;;;;;;5050195;28;20230;-69
2021/04/25 02:50:28;;;;;;;6.50;2.10;;;22.10;90.70;;;;;;5051478;28;20691;-73
2021/04/25 02:52:56;;;;;;;6.37;1.50;;;21.80;90.40;;;;;;5051204;28;20646;-74
2021/04/25 02:55:24;;;;;;;4.07;1.60;;;21.80;90.60;;;;;;5051248;28;20180;-73
2021/04/25 02:57:51;;;;;;;5.70;1.60;;;21.60;93.60;;;;;;5049587;28;20188;-75
2021/04/25 03:00:22;;;;;;;7.23;1.47;;;21.70;93.80;;;;;;5053768;28;20206;-74
2021/04/25 03:02:50;;;;;;;5.30;1.80;;;21.80;93.90;;;;;;5054814;28;20216;-75
2021/04/25 03:05:17;;;;;;;7.13;1.77;;;21.80;94.50;;;;;;5053046;28;20196;-76
2021/04/25 03:07:45;;;;;;;5.70;1.87;;;21.70;95.80;;;;;;5050751;28;20266;-75
2021/04/25 03:10:14;;;;;;;5.30;1.70;;;21.60;96.60;;;;;;5052088;28;20184;-76
2021/04/25 03:12:41;;;;;;;3.00;1.70;;;21.40;96.40;;;;;;5050038;28;20197;-72
2021/04/25 03:15:10;;;;;;;5.30;1.80;;;21.20;96.80;;;;;;5051152;28;20570;-75
2021/04/25 03:17:38;;;;;;;6.33;1.80;;;21.10;97.40;;;;;;5050586;28;20237;-76
2021/04/25 03:20:11;;;;;;;5.20;1.83;;;21.00;97.70;;;;;;5049948;28;20187;-78
2021/04/25 03:22:39;;;;;;;7.07;2.13;;;20.90;98.50;;;;;;5051730;28;20222;-69
2021/04/25 03:25:08;;;;;;;6.47;1.87;;;20.80;98.90;;;;;;5050743;28;20183;-73
2021/04/25 03:27:36;;;;;;;4.40;1.87;;;20.70;99.10;;;;;;5045901;28;20184;-74
2021/04/25 03:30:07;;;;;;;6.03;1.57;;;20.80;99.10;;;;;;5052143;28;20216;-75
2021/04/25 03:32:34;;;;;;;3.50;1.50;;;20.70;99.00;;;;;;5055093;28;20188;-76
2021/04/25 03:35:06;;;;;;;11.27;6.60;;;20.70;99.00;;;;;;5052915;28;20179;-76
2021/04/25 03:37:33;;;;;;;5.53;2.10;;;20.80;99.00;;;;;;5055695;28;20195;-79
2021/04/25 03:40:01;;;;;;;7.60;2.13;;;20.80;98.50;;;;;;5052920;28;20686;-77
2021/04/25 03:42:28;;;;;;;5.10;1.93;;;20.70;99.10;;;;;;5052313;28;20216;-77
2021/04/25 03:44:56;;;;;;;6.20;1.70;;;20.60;99.40;;;;;;5058879;28;20265;-76
2021/04/25 03:47:23;;;;;;;7.50;2.07;;;20.60;99.50;;;;;;5052274;28;20690;-76
2021/04/25 03:49:50;;;;;;;4.83;1.63;;;20.50;99.60;;;;;;5051340;28;20183;-78
2021/04/25 03:52:18;;;;;;;6.33;1.70;;;20.40;99.90;;;;;;5046243;28;20172;-77
2021/04/25 03:54:45;;;;;;;7.13;2.27;;;20.40;99.90;;;;;;5052263;28;21534;-76
2021/04/25 03:57:13;;;;;;;6.80;1.70;;;20.50;99.90;;;;;;5056414;28;20183;-75
2021/04/25 03:59:40;;;;;;;7.00;2.13;;;21.20;99.60;;;;;;5054346;28;20191;-76
2021/04/25 04:02:08;;;;;;;5.57;1.43;;;21.80;98.70;;;;;;5053190;28;20234;-76
2021/04/25 04:04:35;;;;;;;5.47;1.30;;;21.60;99.20;;;;;;5049700;28;20188;-75
2021/04/25 04:07:04;;;;;;;4.60;1.53;;;21.20;99.50;;;;;;5055358;28;20189;-77
2021/04/25 04:09:31;;;;;;;9.53;1.87;;;21.00;99.70;;;;;;5048350;28;20635;-75
2021/04/25 04:11:58;;;;;;;9.07;1.80;;;20.80;99.90;;;;;;5054787;28;20180;-74
2021/04/25 04:14:26;;;;;;;6.93;1.67;;;20.60;99.90;;;;;;5059942;28;20233;-77
2021/04/25 04:16:53;;;;;;;4.10;1.40;;;20.50;99.90;;;;;;5052487;28;20210;-76
2021/04/25 04:19:20;;;;;;;6.03;1.70;;;20.40;99.90;;;;;;5058262;28;20168;-76
2021/04/25 04:21:48;;;;;;;4.23;1.40;;;20.30;99.90;;;;;;5056422;28;20227;-77
2021/04/25 04:24:15;;;;;;;3.17;1.40;;;20.20;99.90;;;;;;5056775;28;20656;-74
2021/04/25 04:26:42;;;;;;;9.13;1.70;;;20.20;99.90;;;;;;5055138;28;20230;-77
2021/04/25 04:29:10;;;;;;;9.63;2.30;;;20.20;99.90;;;;;;5055394;28;20711;-77
2021/04/25 04:31:37;;;;;;;4.20;1.40;;;20.20;99.90;;;;;;5053420;28;20251;-78
2021/04/25 04:34:05;;;;;;;5.97;1.40;;;20.20;99.90;;;;;;5047133;28;20230;-77
2021/04/25 04:36:32;;;;;;;5.53;1.43;;;20.30;99.90;;;;;;5054545;28;20188;-76
2021/04/25 04:38:59;;;;;;;5.20;1.30;;;20.50;99.90;;;;;;5050494;28;20539;-77
2021/04/25 04:41:27;;;;;;;8.00;1.63;;;20.50;99.90;;;;;;5054181;28;20274;-75
2021/04/25 04:43:54;;;;;;;3.70;1.27;;;20.50;99.90;;;;;;5053349;28;20681;-75
2021/04/25 04:46:22;;;;;;;4.70;1.10;;;20.40;99.90;;;;;;5052115;28;20623;-76
2021/04/25 04:48:49;;;;;;;5.00;1.53;;;20.40;99.90;;;;;;5053993;28;20241;-78
2021/04/25 04:51:16;;;;;;;4.03;1.43;;;20.40;99.90;;;;;;5052701;28;20180;-74
2021/04/25 04:53:44;;;;;;;5.90;1.60;;;20.30;99.90;;;;;;5055568;28;20241;-77
2021/04/25 04:56:11;;;;;;;4.07;1.50;;;20.30;99.90;;;;;;5055859;28;20270;-77
2021/04/25 04:58:39;;;;;;;4.60;1.47;;;20.20;99.90;;;;;;5055956;28;20273;-79
2021/04/25 05:01:06;;;;;;;3.73;1.33;;;20.20;99.90;;;;;;5055756;28;20210;-75
2021/04/25 05:03:33;;;;;;;5.90;1.60;;;20.20;99.90;;;;;;5058659;28;20235;-75
2021/04/25 05:06:01;;;;;;;9.43;1.90;;;20.30;99.90;;;;;;5055131;28;20187;-73
2021/04/25 05:08:28;;;;;;;5.50;1.83;;;20.30;99.90;;;;;;5053740;28;20191;-76
2021/04/25 05:10:55;;;;;;;4.83;1.67;;;20.20;99.90;;;;;;5052370;28;20187;-75
2021/04/25 05:13:23;;;;;;;8.07;1.73;;;20.00;99.90;;;;;;5051381;28;20176;-78
2021/04/25 05:15:51;;;;;;;8.23;2.00;;;19.90;99.90;;;;;;5052701;28;20180;-77
2021/04/25 05:18:18;;;;;;;4.63;1.57;;;19.90;99.90;;;;;;5050092;28;20184;-77
2021/04/25 05:20:46;;;;;;;3.93;1.30;;;19.80;99.90;;;;;;5053144;28;20184;-76
2021/04/25 05:23:13;;;;;;;6.13;1.53;;;19.80;99.90;;;;;;5052170;28;20231;-77
2021/04/25 05:25:41;;;;;;;6.43;2.13;;;19.70;99.90;;;;;;5052847;28;20211;-75
2021/04/25 05:28:08;;;;;;;5.93;2.03;;;19.70;99.90;;;;;;5051832;28;20266;-78
2021/04/25 05:30:36;;;;;;;6.77;1.40;;;19.60;99.90;;;;;;5052671;28;20227;-77
2021/04/25 05:33:04;;;;;;;4.27;1.33;;;19.60;99.90;;;;;;5052451;28;20191;-77
2021/04/25 05:35:31;;;;;;;3.37;1.40;;;19.70;99.90;;;;;;5053410;28;20242;-77
2021/04/25 05:37:58;;;;;;;6.70;1.40;;;20.00;99.90;;;;;;5053028;28;20215;-80
2021/04/25 05:40:26;;;;;;;8.80;2.20;;;20.50;99.90;;;;;;5052137;28;20233;-79
2021/04/25 05:42:53;;;;;;;6.27;1.53;;;20.40;99.90;;;;;;5052138;28;20239;-77
2021/04/25 05:45:21;;;;;;;5.23;1.37;;;20.20;99.90;;;;;;5051626;28;20657;-77
2021/04/25 05:47:53;;;;;;;5.10;1.50;;;20.10;99.90;;;;;;5052773;28;20646;-79
2021/04/25 05:50:22;;;;;;;4.43;1.13;;;20.60;99.90;;;;;;5052130;28;20712;-73
2021/04/25 05:52:50;;;;;;;5.53;1.30;;;21.40;99.90;;;;;;5052885;28;20190;-76
2021/04/25 05:55:18;;;;;;;4.47;1.17;;;22.10;99.90;;;;;;5050481;28;20179;-77
2021/04/25 05:57:46;;;;;;;4.00;1.10;;;22.40;99.90;;;;;;5052792;28;20196;-78
2021/04/25 06:00:17;;;;;;;9.50;1.87;;;22.20;99.50;;;;;;5052086;28;20635;-73
2021/04/25 06:02:44;;;;;;;3.73;1.47;;;22.20;99.80;;;;;;5052550;28;20258;-77
2021/04/25 06:05:12;;;;;;;7.97;1.80;;;21.90;99.90;;;;;;5052332;28;20176;-76
2021/04/25 06:07:40;;;;;;;6.23;1.30;;;22.00;99.90;;;;;;5050300;28;20187;-77
2021/04/25 06:10:08;;;;;;;6.33;1.77;;;21.40;99.90;;;;;;5051821;28;20203;-75
2021/04/25 06:12:36;;;;;;;7.83;1.73;;;21.00;99.90;;;;;;5050906;28;20196;-72
2021/04/25 06:15:06;;;;;;;4.10;1.50;;;20.80;99.90;;;;;;5052741;28;20180;-77
2021/04/25 06:17:34;;;;;;;6.00;1.23;;;20.80;99.90;;;;;;5053643;28;20188;-76
2021/04/25 06:20:02;;;;;;;7.07;1.83;;;21.00;99.90;;;;;;5054974;28;20180;-75
2021/04/25 06:22:29;;;;;;;3.90;1.40;;;21.00;99.90;;;;;;5053216;28;20199;-75
2021/04/25 06:24:57;;;;;;;5.07;1.70;;;20.80;99.90;;;;;;5051789;28;20188;-77
2021/04/25 06:27:25;;;;;;;4.57;1.10;;;20.70;99.90;;;;;;5052662;28;20187;-76
2021/04/25 06:29:54;;;;;;;4.40;1.10;;;20.40;99.90;;;;;;5052075;28;20220;-76
2021/04/25 06:32:21;;;;;;;6.33;1.50;;;20.00;99.90;;;;;;5051615;28;20259;-78
2021/04/25 06:34:49;;;;;;;5.87;1.60;;;19.90;99.90;;;;;;5054001;28;20215;-77
2021/04/25 06:37:16;;;;;;;6.07;1.40;;;19.80;99.90;;;;;;5052629;28;20238;-79
2021/04/25 06:39:44;;;;;;;4.50;1.40;;;19.60;99.90;;;;;;5051726;28;20263;-78
2021/04/25 06:42:11;;;;;;;8.27;1.60;;;19.40;99.90;;;;;;5049096;28;20223;-76
2021/04/25 06:44:39;;;;;;;5.23;1.47;;;19.40;99.90;;;;;;5046179;28;20192;-74
2021/04/25 06:47:06;;;;;;;9.93;1.90;;;19.30;99.90;;;;;;5052257;28;20195;-77
2021/04/25 06:49:34;;;;;;;5.70;1.40;;;19.20;99.90;;;;;;5053546;28;20216;-76
2021/04/25 06:52:01;;;;;;;4.77;1.50;;;19.10;99.90;;;;;;5052300;28;20266;-77
2021/04/25 06:54:29;;;;;;;5.93;1.83;;;19.20;99.90;;;;;;5051675;28;20191;-75
2021/04/25 06:56:56;;;;;;;7.53;2.00;;;19.10;99.90;;;;;;5051657;28;20187;-78
2021/04/25 06:59:23;;;;;;;5.87;2.10;;;19.10;99.90;;;;;;5051688;28;20285;-82
2021/04/25 07:01:51;;;;;;;8.60;1.40;;;18.90;99.90;;;;;;5050961;28;20207;-74
2021/04/25 07:04:18;;;;;;;10.60;1.53;;;18.80;99.90;;;;;;5052125;28;20215;-78
2021/04/25 07:06:45;;;;;;;6.77;1.20;;;18.80;99.90;;;;;;5052761;28;20194;-78
2021/04/25 07:09:13;;;;;;;6.10;1.77;;;18.70;99.90;;;;;;5051930;28;20554;-78
2021/04/25 07:11:40;;;;;;;6.53;1.50;;;18.60;99.90;;;;;;5063407;28;20183;-75
2021/04/25 07:14:07;;;;;;;5.17;1.40;;;18.50;99.90;;;;;;5054027;28;20275;-72
2021/04/25 07:16:35;;;;;;;9.60;1.93;;;18.40;99.90;;;;;;5043915;28;20255;-70
2021/04/25 07:19:02;;;;;;;8.47;1.57;;;18.40;99.90;;;;;;5055494;28;20191;-70
2021/04/25 07:21:30;;;;;;;5.83;1.50;;;18.40;99.90;;;;;;5053390;28;20666;-71
2021/04/25 07:23:57;;;;;;;7.10;1.83;;;18.30;99.90;;;;;;5055709;28;20191;-74
2021/04/25 07:26:24;;;;;;;3.97;1.80;;;18.30;99.90;;;;;;5047484;28;20200;-75
2021/04/25 07:28:52;;;;;;;8.60;1.40;;;18.30;99.90;;;;;;5053341;28;20554;-74
2021/04/25 07:31:20;;;;;;;4.57;1.90;;;18.20;99.90;;;;;;5052771;28;20238;-75
2021/04/25 07:33:47;;;;;;;5.07;1.60;;;18.20;99.90;;;;;;5052636;28;20267;-76
2021/04/25 07:36:14;;;;;;;4.13;1.63;;;18.10;99.90;;;;;;5052121;28;20184;-73
2021/04/25 07:38:42;;;;;;;6.80;1.70;;;18.00;99.90;;;;;;5052462;28;20258;-73
2021/04/25 07:41:11;;;;;;;6.73;1.80;;;18.00;99.90;;;;;;5045430;28;20208;-76
2021/04/25 07:43:39;;;;;;;13.37;2.00;;;17.90;99.90;;;;;;5051948;28;20678;-74
2021/04/25 07:46:06;;;;;;;6.23;1.70;;;17.80;99.90;;;;;;5054429;28;20188;-75
2021/04/25 07:48:33;;;;;;;3.83;1.50;;;17.80;99.90;;;;;;5053015;28;20179;-75
2021/04/25 07:51:01;;;;;;;5.97;1.90;;;17.80;99.90;;;;;;5054486;28;20180;-76
2021/04/25 07:53:28;;;;;;;7.50;2.10;;;17.70;99.90;;;;;;5055112;28;20180;-71
2021/04/25 07:55:56;;;;;;;8.50;2.70;;;17.60;99.90;;;;;;5054663;28;20219;-77
2021/04/25 07:58:23;;;;;;;7.90;2.47;;;17.60;99.90;;;;;;5055004;28;20172;-76
2021/04/25 08:00:50;;;;;;;9.13;2.70;;;17.50;99.90;;;;;;5055105;28;20191;-75
2021/04/25 08:03:18;;;;;;;6.63;2.37;;;17.50;99.90;;;;;;5054066;28;20273;-74
2021/04/25 08:05:45;;;;;;;7.40;2.33;;;17.50;99.90;;;;;;5055427;28;20567;-74
2021/04/25 08:08:12;;;;;;;13.40;2.43;;;17.40;99.90;;;;;;5055203;28;20183;-76
2021/04/25 08:10:41;;;;;;;6.23;2.10;;;17.40;99.90;;;;;;5054516;28;20188;-74
2021/04/25 08:13:09;;;;;;;7.90;2.10;;;17.40;99.90;;;;;;5055025;28;20191;-75
2021/04/25 08:15:37;;;;;;;11.57;3.10;;;17.30;99.90;;;;;;5054381;28;20187;-76
2021/04/25 08:18:04;;;;;;;8.27;2.20;;;17.30;99.90;;;;;;5054559;28;20187;-75
2021/04/25 08:20:32;;;;;;;6.67;1.80;;;17.30;99.90;;;;;;5054848;28;20698;-76
2021/04/25 08:22:59;;;;;;;10.33;2.30;;;17.30;99.90;;;;;;5055038;28;20219;-76
2021/04/25 08:25:27;;;;;;;6.60;2.10;;;17.30;99.90;;;;;;5054455;28;20207;-72
2021/04/25 08:27:54;;;;;;;6.87;2.40;;;17.30;99.90;;;;;;5054770;28;20191;-76
2021/04/25 08:30:23;;;;;;;10.77;2.27;;;17.30;99.90;;;;;;5054474;28;20239;-70
2021/04/25 08:32:50;;;;;;;7.13;2.30;;;17.20;99.90;;;;;;5054466;28;20194;-75
2021/04/25 08:35:19;;;;;;;5.97;1.97;;;17.30;99.90;;;;;;5054873;28;20710;-76
2021/04/25 08:37:49;;;;;;;5.80;2.27;;;17.20;99.90;;;;;;5054681;28;20184;-76
2021/04/25 08:40:17;;;;;;;12.60;2.80;;;17.10;99.90;;;;;;5053860;28;20555;-75
2021/04/25 08:42:45;;;;;;;13.97;2.47;;;17.10;99.90;;;;;;5054446;28;20215;-76
2021/04/25 08:45:15;;;;;;;4.30;2.30;;;17.00;99.90;;;;;;5054449;28;20556;-75
2021/04/25 08:48:11;;;;;;;8.53;2.77;;;17.00;99.90;;;;;;5053202;28;20773;-73
2021/04/25 08:50:41;;;;;;;9.47;3.37;;;16.90;99.90;;;;;;5043088;28;20184;-74
2021/04/25 08:53:10;;;;;;;7.67;3.07;;;16.90;99.90;;;;;;5053622;28;20179;-76
2021/04/25 08:55:38;;;;;;;13.07;3.67;;;16.80;99.90;;;;;;5053195;28;20222;-71
2021/04/25 08:58:05;;;;;;;8.07;2.90;;;16.80;99.90;;;;;;5054265;28;20226;-77
2021/04/25 09:00:32;;;;;;;8.90;2.87;;;16.80;99.90;;;;;;5053835;28;20180;-72
2021/04/25 09:02:59;;;;;;;8.90;2.70;;;16.70;99.90;;;;;;5053700;28;20203;-76
2021/04/25 09:05:27;;;;;;;8.50;2.57;;;16.70;99.90;;;;;;5065695;28;20255;-77
2021/04/25 09:07:59;;;;;;;10.67;2.47;;;16.70;99.90;;;;;;5054335;28;20183;-74
2021/04/25 09:10:41;;;;;;;8.77;3.03;;;16.60;99.90;;;;;;5053507;28;20217;-78
2021/04/25 09:13:26;;;;;;;9.00;2.87;;;16.60;99.90;;;;;;5054047;28;20184;-75
2021/04/25 09:15:55;;;;;;;7.77;3.03;;;16.60;99.90;;;;;;5041329;28;20172;-77
2021/04/25 09:18:35;;;;;;;6.00;2.27;;;16.50;99.90;;;;;;5036845;28;20193;-74
2021/04/25 09:21:07;;;;;;;12.60;2.87;;;16.50;99.90;;;;;;5053045;28;20544;-76
2021/04/25 09:23:35;;;;;;;7.27;2.43;;;16.50;99.90;;;;;;5073690;28;20222;-72
2021/04/25 09:26:05;;;;;;;5.47;2.20;;;16.50;99.90;;;;;;5071446;28;20184;-71
2021/04/25 09:28:34;;;;;;;5.90;2.63;;;16.50;99.90;;;;;;5051050;28;20180;-73
2021/04/25 09:31:07;;;;;;;8.90;2.60;;;16.50;99.90;;;;;;5068392;28;20216;-75
2021/04/25 09:33:54;;;;;;;7.80;2.83;;;16.40;99.90;;;;;;5041025;28;20183;-70
2021/04/25 09:36:24;;;;;;;6.27;2.83;;;16.40;99.90;;;;;;5040404;28;20184;-72
2021/04/25 09:39:07;;;;;;;10.40;2.80;;;16.40;99.90;;;;;;5043192;28;20191;-69
2021/04/25 09:41:35;;;;;;;9.60;3.10;;;16.30;99.90;;;;;;5046232;28;20245;-72
2021/04/25 09:44:03;;;;;;;7.47;2.50;;;16.20;99.90;;;;;;5052169;28;20675;-69
2021/04/25 09:46:53;;;;;;;6.77;3.03;;;16.30;99.90;;;;;;5047185;28;20211;-71
2021/04/25 09:49:41;;;;;;;7.27;2.80;;;16.20;99.90;;;;;;5054179;28;20267;-73
2021/04/25 09:52:11;;;;;;;8.33;3.10;;;16.20;99.90;;;;;;5059136;28;20213;-70
2021/04/25 09:54:39;;;;;;;11.20;2.40;;;16.20;99.90;;;;;;5057473;28;20195;-69
2021/04/25 09:57:07;;;;;;;8.13;2.77;;;16.10;99.90;;;;;;5053067;28;20772;-72
2021/04/25 09:59:51;;;;;;;6.40;2.77;;;16.10;99.90;;;;;;5052954;28;20306;-72
2021/04/25 10:02:19;;;;;;;7.90;2.87;;;16.00;99.90;;;;;;5040195;28;20218;-73
2021/04/25 10:04:46;;;;;;;8.87;3.27;;;16.00;99.90;;;;;;5053033;28;20626;-72
2021/04/25 10:07:14;;;;;;;9.67;2.97;;;16.00;99.90;;;;;;5039108;28;20214;-75
2021/04/25 10:09:41;;;;;;;9.30;2.70;;;15.90;99.90;;;;;;5052922;28;20179;-71
2021/04/25 10:12:08;;;;;;;10.13;2.77;;;15.90;99.90;;;;;;5052554;28;20543;-74
2021/04/25 10:14:36;;;;;;;8.07;2.73;;;15.90;99.90;;;;;;5052517;28;20260;-73
2021/04/25 10:17:04;;;;;;;11.80;3.40;;;15.90;99.90;;;;;;5052129;28;20241;-74
2021/04/25 10:19:32;;;;;;;7.73;3.20;;;15.90;99.90;;;;;;5052589;28;20232;-71
2021/04/25 10:22:03;;;;;;;10.90;3.13;;;15.90;99.90;;;;;;5052230;28;20207;-73
2021/04/25 10:24:30;;;;;;;10.40;4.00;;;15.80;99.90;;;;;;5052247;28;20543;-74
2021/04/25 10:27:12;;;;;;;14.93;4.90;;;15.80;99.90;;;;;;5050955;28;20201;-73
2021/04/25 10:29:51;;;;;;;10.07;4.60;;;15.80;99.90;;;;;;5048579;28;20622;-72
2021/04/25 10:32:20;;;;;;;9.73;4.80;;;15.80;99.90;;;;;;5050748;28;20589;-73
2021/04/25 10:34:50;;;;;;;16.53;5.30;;;15.80;99.90;;;;;;5051169;28;20263;-75
2021/04/25 10:37:18;;;;;;;14.57;5.67;;;15.80;99.90;;;;;;5052041;28;20206;-74
2021/04/25 10:39:52;;;;;;;15.00;5.87;;;15.80;99.90;;;;;;5051962;28;20183;-75
2021/04/25 10:42:26;;;;;;;19.53;6.10;;;15.70;99.90;;;;;;5038224;28;20209;-73
2021/04/25 10:45:05;;;;;;;17.97;6.33;;;15.70;99.90;;;;;;5052094;28;20191;-74
2021/04/25 10:47:39;;;;;;;19.60;6.40;;;15.70;99.90;;;;;;5049448;28;20650;-72
2021/04/25 10:50:19;;;;;;;14.00;6.10;;;15.60;99.90;;;;;;5046756;28;20180;-75
2021/04/25 10:52:50;;;;;;;12.03;5.90;;;15.60;99.90;;;;;;5052103;28;20214;-73
2021/04/25 10:55:19;;;;;;;15.20;5.13;;;15.50;99.90;;;;;;5050484;28;20507;-72
2021/04/25 10:58:07;;;;;;;13.63;6.03;;;15.50;99.90;;;;;;5052235;28;20802;-75
2021/04/25 11:03:02;;;;;;;13.13;5.37;;;15.50;99.90;;;;;;5051884;28;20237;-73
2021/04/25 11:05:41;;;;;;;20.03;6.00;;;15.50;99.90;;;;;;5052114;28;20182;-72
2021/04/25 11:08:15;;;;;;;10.97;5.60;;;15.50;99.90;;;;;;5067294;28;20180;-72
2021/04/25 11:10:52;;;;;;;17.53;6.33;;;15.50;99.90;;;;;;5051708;28;20237;-74
2021/04/25 11:13:39;;;;;;;15.03;5.40;;;15.50;99.90;;;;;;5052141;28;20187;-74
2021/04/25 11:16:09;;;;;;;17.87;6.23;;;15.50;99.90;;;;;;5051207;28;20176;-74
2021/04/25 11:18:59;;;;;;;15.57;5.60;;;15.50;99.90;;;;;;5045962;28;20198;-73
2021/04/25 11:21:30;;;;;;;17.80;6.07;;;15.40;99.90;;;;;;5056347;28;20694;-73
2021/04/25 11:24:23;;;;;;;15.50;6.30;;;15.40;99.90;;;;;;5054944;28;20594;-74
2021/04/25 11:26:57;;;;;;;16.80;5.57;;;15.40;99.90;;;;;;5055550;28;20190;-75
2021/04/25 11:29:24;;;;;;;18.20;5.97;;;15.40;99.90;;;;;;5054494;28;20289;-75
2021/04/25 11:31:54;;;;;;;16.87;6.60;;;15.30;99.90;;;;;;5055464;28;20235;-73
2021/04/25 11:34:28;;;;;;;14.20;6.77;;;15.20;99.90;;;;;;5055622;28;20180;-75
2021/04/25 11:37:04;;;;;;;16.03;7.43;;;15.20;99.90;;;;;;5055927;28;20184;-74
2021/04/25 11:39:34;;;;;;;16.80;8.23;;;15.20;99.90;;;;;;5055469;28;20654;-73
2021/04/25 11:42:02;;;;;;;18.23;9.03;;;15.10;99.90;;;;;;5055493;28;20204;-73
2021/04/25 11:44:38;;;;;;;18.37;7.50;;;15.10;99.90;;;;;;5053581;28;20183;-72
2021/04/25 11:47:08;;;;;;;15.87;7.17;;;15.10;99.90;;;;;;5054427;28;20193;-74
2021/04/25 11:49:38;;;;;;;16.80;8.10;;;15.00;99.90;;;;;;5053446;28;20715;-71
2021/04/25 11:52:23;;;;;;;16.60;8.40;;;15.00;99.90;;;;;;5055438;28;20218;-71
2021/04/25 11:55:08;;;;;;;20.53;9.83;;;15.00;99.90;;;;;;5046758;28;20264;-71
2021/04/25 11:57:38;;;;;;;22.87;9.30;;;15.00;99.90;;;;;;5052105;28;20193;-70
2021/04/25 12:00:22;;;;;;;14.97;8.13;;;14.90;99.90;;;;;;5055485;28;20186;-70
2021/04/25 12:02:52;;;;;;;12.13;6.20;;;14.90;99.90;;;;;;5053240;28;20215;-70
2021/04/25 12:05:21;;;;;;;12.30;6.30;;;14.90;99.90;;;;;;5054128;28;20587;-71
2021/04/25 12:08:10;;;;;;;16.67;7.10;;;14.90;99.90;;;;;;5053243;28;20189;-74
2021/04/25 12:10:51;;;;;;;16.90;7.30;;;14.90;99.90;;;;;;5052005;28;20566;-74
2021/04/25 12:13:19;;;;;;;17.20;7.10;;;15.00;99.90;;;;;;5053561;28;20183;-74
2021/04/25 12:15:57;;;;;;;16.77;7.07;;;15.00;99.90;;;;;;5054751;28;20590;-73
2021/04/25 12:18:36;;;;;;;14.63;6.77;;;15.00;99.90;;;;;;5053441;28;20605;-73
2021/04/25 12:21:08;;;;;;;11.60;5.60;;;14.90;99.90;;;;;;5051627;28;20187;-74
2021/04/25 12:23:54;;;;;;;16.57;7.23;;;14.90;99.90;;;;;;5048861;28;20221;-72
2021/04/25 12:26:25;;;;;;;11.37;6.60;;;14.90;99.90;;;;;;5052039;28;20176;-72
2021/04/25 12:28:56;;;;;;;11.00;6.37;;;15.00;99.90;;;;;;5054546;28;20298;-71
2021/04/25 12:31:26;;;;;;;12.80;7.27;;;15.00;99.90;;;;;;5053053;28;20239;-72
2021/04/25 12:33:58;;;;;;;15.77;6.73;;;15.10;99.90;;;;;;5053525;28;20184;-74
2021/04/25 12:36:28;;;;;;;16.73;7.93;;;15.10;99.90;;;;;;5054160;28;20195;-73
2021/04/25 12:38:57;;;;;;;16.40;6.63;;;15.10;99.90;;;;;;5049630;28;20618;-72
2021/04/25 12:41:25;;;;;;;12.63;7.13;;;15.10;99.90;;;;;;5053813;28;20273;-73
2021/04/25 12:43:56;;;;;;;18.17;6.83;;;15.20;99.90;;;;;;5052704;28;20231;-71
2021/04/25 12:46:28;;;;;;;16.70;6.90;;;15.20;99.90;;;;;;5052338;28;20190;-72
2021/04/25 12:49:03;;;;;;;13.60;6.83;;;15.30;99.90;;;;;;5053128;28;20206;-73
2021/04/25 12:51:33;;;;;;;14.77;6.43;;;15.30;99.90;;;;;;5054052;28;20310;-73
2021/04/25 12:54:05;;;;;;;12.13;6.40;;;15.40;99.90;;;;;;5053873;28;20589;-73
2021/04/25 12:56:34;;;;;;;18.00;7.40;;;15.40;99.90;;;;;;5051689;28;20269;-72
2021/04/25 12:59:21;;;;;;;16.77;7.70;;;15.40;99.90;;;;;;5052931;28;20230;-72